createdAt,value
2016-11-25T00:00:38.406Z,0
2016-11-25T00:01:38.440Z,0
2016-11-25T00:02:38.513Z,0
2016-11-25T00:03:38.576Z,0
2016-11-25T00:04:38.616Z,0
2016-11-25T00:05:38.662Z,0
2016-11-25T00:06:38.744Z,0
2016-11-25T00:07:38.767Z,0
2016-11-25T00:08:38.827Z,0
2016-11-25T00:09:38.899Z,0
2016-11-25T00:10:38.950Z,0
2016-11-25T00:11:38.989Z,0
2016-11-25T00:12:39.064Z,0
2016-11-25T00:13:39.131Z,0
2016-11-25T00:14:39.190Z,0
2016-11-25T00:15:39.218Z,0
2016-11-25T00:16:39.297Z,0
2016-11-25T00:17:39.350Z,0
2016-11-25T00:18:39.704Z,0
2016-11-25T00:19:39.478Z,0
2016-11-25T00:20:39.512Z,0
2016-11-25T00:21:39.562Z,0
2016-11-25T00:22:39.624Z,0
2016-11-25T00:23:39.677Z,0
2016-11-25T00:24:39.730Z,0
2016-11-25T00:25:39.795Z,0
2016-11-25T00:26:39.871Z,0
2016-11-25T00:27:39.908Z,0
2016-11-25T00:28:39.967Z,0
2016-11-25T00:29:40.020Z,0
2016-11-25T00:30:40.092Z,0
2016-11-25T00:31:40.138Z,0
2016-11-25T00:32:40.181Z,0
2016-11-25T00:33:40.246Z,0
2016-11-25T00:34:40.304Z,0
2016-11-25T00:35:40.367Z,0
2016-11-25T00:36:40.420Z,0
2016-11-25T00:37:40.478Z,0
2016-11-25T00:38:40.548Z,0
2016-11-25T00:39:40.586Z,0
2016-11-25T00:40:40.625Z,0
2016-11-25T00:41:40.698Z,0
2016-11-25T00:42:40.767Z,0
2016-11-25T00:43:40.830Z,0
2016-11-25T00:44:40.851Z,0
2016-11-25T00:45:40.938Z,0
2016-11-25T00:46:40.974Z,0
2016-11-25T00:47:41.025Z,0
2016-11-25T00:48:41.091Z,0
2016-11-25T00:49:41.161Z,0
2016-11-25T00:50:41.204Z,0
2016-11-25T00:51:41.259Z,0
2016-11-25T00:52:41.324Z,0
2016-11-25T00:53:41.366Z,0
2016-11-25T00:54:41.431Z,0
2016-11-25T00:55:41.492Z,0
2016-11-25T00:56:41.538Z,0
2016-11-25T00:57:41.585Z,0
2016-11-25T00:58:41.663Z,0
2016-11-25T00:59:41.734Z,0
2016-11-25T01:00:41.779Z,0
2016-11-25T01:01:41.812Z,0
2016-11-25T01:02:41.881Z,0
2016-11-25T01:03:41.935Z,0
2016-11-25T01:04:42.008Z,0
2016-11-25T01:05:42.060Z,0
2016-11-25T01:06:42.116Z,0
2016-11-25T01:07:42.168Z,0
2016-11-25T01:08:42.243Z,0
2016-11-25T01:09:42.300Z,0
2016-11-25T01:10:42.365Z,0
2016-11-25T01:11:42.399Z,0
2016-11-25T01:12:42.455Z,0
2016-11-25T01:13:42.493Z,0
2016-11-25T01:14:42.581Z,0
2016-11-25T01:15:42.627Z,0
2016-11-25T01:16:42.680Z,0
2016-11-25T01:17:42.733Z,0
2016-11-25T01:18:42.781Z,0
2016-11-25T01:19:42.832Z,0
2016-11-25T01:20:42.939Z,0
2016-11-25T01:21:42.979Z,0
2016-11-25T01:22:43.036Z,0
2016-11-25T01:23:43.083Z,0
2016-11-25T01:24:43.143Z,0
2016-11-25T01:25:43.192Z,0
2016-11-25T01:26:43.253Z,0
2016-11-25T01:27:43.301Z,0
2016-11-25T01:28:43.361Z,0
2016-11-25T01:29:43.424Z,0
2016-11-25T01:30:43.460Z,0
2016-11-25T01:31:43.812Z,0
2016-11-25T01:32:43.603Z,0
2016-11-25T01:33:43.644Z,0
2016-11-25T01:34:43.688Z,0
2016-11-25T01:35:43.779Z,0
2016-11-25T01:36:43.829Z,0
2016-11-25T01:37:43.869Z,0
2016-11-25T01:38:43.923Z,0
2016-11-25T01:39:44.000Z,0
2016-11-25T01:40:44.051Z,0
2016-11-25T01:41:44.085Z,0
2016-11-25T01:42:44.139Z,0
2016-11-25T01:43:44.196Z,0
2016-11-25T01:44:44.284Z,0
2016-11-25T01:45:44.314Z,0
2016-11-25T01:46:44.392Z,0
2016-11-25T01:47:44.449Z,0
2016-11-25T01:48:44.508Z,0
2016-11-25T01:49:44.552Z,0
2016-11-25T01:50:44.604Z,0
2016-11-25T01:51:44.657Z,0
2016-11-25T01:52:44.721Z,0
2016-11-25T01:53:44.784Z,0
2016-11-25T01:54:44.833Z,0
2016-11-25T01:55:44.908Z,0
2016-11-25T01:56:44.959Z,0
2016-11-25T01:57:45.024Z,0
2016-11-25T01:58:45.073Z,0
2016-11-25T01:59:45.119Z,0
2016-11-25T02:00:45.182Z,0
2016-11-25T02:01:45.227Z,0
2016-11-25T02:02:45.288Z,0
2016-11-25T02:03:45.360Z,0
2016-11-25T02:04:45.418Z,0
2016-11-25T02:05:45.462Z,0
2016-11-25T02:06:45.546Z,0
2016-11-25T02:07:45.557Z,0
2016-11-25T02:08:45.645Z,0
2016-11-25T02:09:45.684Z,0
2016-11-25T02:10:45.721Z,0
2016-11-25T02:11:45.791Z,0
2016-11-25T02:12:45.837Z,0
2016-11-25T02:13:45.929Z,0
2016-11-25T02:14:45.973Z,0
2016-11-25T02:15:46.025Z,0
2016-11-25T02:16:46.080Z,0
2016-11-25T02:17:46.144Z,0
2016-11-25T02:18:46.194Z,0
2016-11-25T02:19:46.257Z,0
2016-11-25T02:20:46.313Z,0
2016-11-25T02:21:46.362Z,0
2016-11-25T02:22:46.407Z,0
2016-11-25T02:23:46.474Z,0
2016-11-25T02:24:46.523Z,0
2016-11-25T02:25:46.583Z,0
2016-11-25T02:26:46.645Z,0
2016-11-25T02:27:46.715Z,0
2016-11-25T02:28:46.768Z,0
2016-11-25T02:29:46.815Z,0
2016-11-25T02:30:46.861Z,0
2016-11-25T02:31:46.916Z,0
2016-11-25T02:32:47.286Z,0
2016-11-25T02:33:47.047Z,0
2016-11-25T02:34:47.090Z,0
2016-11-25T02:35:47.154Z,0
2016-11-25T02:36:47.205Z,0
2016-11-25T02:37:47.286Z,0
2016-11-25T02:38:47.306Z,0
2016-11-25T02:39:47.368Z,0
2016-11-25T02:40:47.422Z,0
2016-11-25T02:41:47.498Z,0
2016-11-25T02:42:47.551Z,0
2016-11-25T02:43:47.616Z,0
2016-11-25T02:44:47.678Z,0
2016-11-25T02:45:47.727Z,0
2016-11-25T02:46:47.774Z,0
2016-11-25T02:47:47.832Z,0
2016-11-25T02:48:47.890Z,0
2016-11-25T02:49:47.938Z,0
2016-11-25T02:50:48.009Z,0
2016-11-25T02:51:48.039Z,0
2016-11-25T02:52:48.092Z,0
2016-11-25T02:53:48.188Z,0
2016-11-25T02:54:48.553Z,0
2016-11-25T02:55:48.267Z,0
2016-11-25T02:56:48.341Z,0
2016-11-25T02:57:48.412Z,0
2016-11-25T02:58:48.451Z,0
2016-11-25T02:59:48.511Z,0
2016-11-25T03:00:48.563Z,0
2016-11-25T03:01:48.627Z,0
2016-11-25T03:02:48.674Z,0
2016-11-25T03:03:48.724Z,0
2016-11-25T03:04:48.792Z,0
2016-11-25T03:05:48.863Z,0
2016-11-25T03:06:48.938Z,0
2016-11-25T03:07:48.961Z,0
2016-11-25T03:08:49.005Z,0
2016-11-25T03:09:49.080Z,0
2016-11-25T03:10:49.152Z,0
2016-11-25T03:11:49.200Z,0
2016-11-25T03:12:49.237Z,0
2016-11-25T03:13:49.298Z,0
2016-11-25T03:14:49.372Z,0
2016-11-25T03:15:49.405Z,0
2016-11-25T03:16:49.463Z,0
2016-11-25T03:17:49.540Z,0
2016-11-25T03:18:49.566Z,0
2016-11-25T03:19:49.644Z,0
2016-11-25T03:20:49.710Z,0
2016-11-25T03:21:49.747Z,0
2016-11-25T03:22:49.828Z,0
2016-11-25T03:23:49.849Z,0
2016-11-25T03:24:49.926Z,0
2016-11-25T03:25:49.998Z,0
2016-11-25T03:26:50.019Z,0
2016-11-25T03:27:50.089Z,0
2016-11-25T03:28:50.190Z,0
2016-11-25T03:29:50.222Z,0
2016-11-25T03:30:50.263Z,0
2016-11-25T03:31:50.317Z,0
2016-11-25T03:32:50.370Z,0
2016-11-25T03:33:50.443Z,0
2016-11-25T03:34:50.486Z,0
2016-11-25T03:35:50.550Z,0
2016-11-25T03:36:50.596Z,0
2016-11-25T03:37:50.655Z,0
2016-11-25T03:38:50.698Z,0
2016-11-25T03:39:50.761Z,0
2016-11-25T03:40:50.828Z,0
2016-11-25T03:41:50.877Z,0
2016-11-25T03:42:50.920Z,0
2016-11-25T03:43:50.983Z,0
2016-11-25T03:44:51.039Z,0
2016-11-25T03:45:51.123Z,0
2016-11-25T03:46:51.179Z,0
2016-11-25T03:47:51.224Z,0
2016-11-25T03:48:51.275Z,0
2016-11-25T03:49:51.339Z,0
2016-11-25T03:50:51.400Z,0
2016-11-25T03:51:51.434Z,0
2016-11-25T03:52:51.500Z,0
2016-11-25T03:53:51.564Z,0
2016-11-25T03:54:51.648Z,0
2016-11-25T03:55:51.680Z,0
2016-11-25T03:56:51.715Z,0
2016-11-25T03:57:51.790Z,0
2016-11-25T03:58:51.837Z,0
2016-11-25T03:59:51.911Z,0
2016-11-25T04:00:51.963Z,0
2016-11-25T04:01:52.009Z,0
2016-11-25T04:02:52.068Z,0
2016-11-25T04:03:52.120Z,0
2016-11-25T04:04:52.172Z,0
2016-11-25T04:05:52.252Z,0
2016-11-25T04:06:52.282Z,0
2016-11-25T04:07:52.354Z,0
2016-11-25T04:08:52.408Z,0
2016-11-25T04:09:52.459Z,0
2016-11-25T04:10:52.514Z,0
2016-11-25T04:11:52.594Z,0
2016-11-25T04:12:52.631Z,0
2016-11-25T04:13:52.685Z,0
2016-11-25T04:14:52.743Z,0
2016-11-25T04:15:52.795Z,0
2016-11-25T04:16:52.854Z,0
2016-11-25T04:17:52.922Z,0
2016-11-25T04:18:52.960Z,0
2016-11-25T04:19:53.021Z,0
2016-11-25T04:20:53.102Z,0
2016-11-25T04:21:53.136Z,0
2016-11-25T04:22:53.192Z,0
2016-11-25T04:23:53.258Z,0
2016-11-25T04:24:53.314Z,0
2016-11-25T04:25:53.355Z,0
2016-11-25T04:26:53.432Z,0
2016-11-25T04:27:53.495Z,0
2016-11-25T04:28:53.526Z,0
2016-11-25T04:29:53.582Z,0
2016-11-25T04:30:53.657Z,0
2016-11-25T04:31:53.712Z,0
2016-11-25T04:32:53.759Z,0
2016-11-25T04:33:53.801Z,0
2016-11-25T04:34:53.871Z,0
2016-11-25T04:35:53.915Z,0
2016-11-25T04:36:53.979Z,0
2016-11-25T04:37:54.060Z,0
2016-11-25T04:38:54.081Z,0
2016-11-25T04:39:54.144Z,0
2016-11-25T04:40:54.208Z,0
2016-11-25T04:41:54.272Z,0
2016-11-25T04:42:54.347Z,0
2016-11-25T04:43:54.393Z,0
2016-11-25T04:44:54.448Z,0
2016-11-25T04:45:54.485Z,0
2016-11-25T04:46:54.572Z,0
2016-11-25T04:47:54.626Z,0
2016-11-25T04:48:54.684Z,0
2016-11-25T04:49:54.721Z,0
2016-11-25T04:50:54.758Z,0
2016-11-25T04:51:54.836Z,0
2016-11-25T04:52:54.874Z,0
2016-11-25T04:53:54.943Z,0
2016-11-25T04:54:55.004Z,0
2016-11-25T04:55:55.069Z,0
2016-11-25T04:56:55.123Z,0
2016-11-25T04:57:55.168Z,0
2016-11-25T04:58:55.222Z,0
2016-11-25T04:59:55.278Z,0
2016-11-25T05:00:55.383Z,0
2016-11-25T05:01:55.414Z,0
2016-11-25T05:02:55.457Z,0
2016-11-25T05:03:55.516Z,0
2016-11-25T05:04:55.587Z,0
2016-11-25T05:05:55.634Z,0
2016-11-25T05:06:55.693Z,0
2016-11-25T05:07:55.740Z,0
2016-11-25T05:08:55.808Z,0
2016-11-25T05:09:55.855Z,0
2016-11-25T05:10:56.219Z,0
2016-11-25T05:11:55.981Z,0
2016-11-25T05:12:56.032Z,0
2016-11-25T05:13:56.076Z,0
2016-11-25T05:14:56.119Z,0
2016-11-25T05:15:56.192Z,0
2016-11-25T05:16:56.344Z,0
2016-11-25T05:17:56.302Z,0
2016-11-25T05:18:56.351Z,0
2016-11-25T05:19:56.415Z,0
2016-11-25T05:20:56.476Z,0
2016-11-25T05:21:56.519Z,0
2016-11-25T05:22:56.591Z,0
2016-11-25T05:23:56.655Z,0
2016-11-25T05:24:56.704Z,0
2016-11-25T05:25:56.761Z,0
2016-11-25T05:26:56.803Z,0
2016-11-25T05:27:56.879Z,0
2016-11-25T05:28:56.928Z,0
2016-11-25T05:29:56.973Z,0
2016-11-25T05:30:57.024Z,0
2016-11-25T05:31:57.116Z,0
2016-11-25T05:32:57.136Z,0
2016-11-25T05:33:57.209Z,0
2016-11-25T05:34:57.259Z,0
2016-11-25T05:35:57.316Z,0
2016-11-25T05:36:57.399Z,0
2016-11-25T05:37:57.450Z,0
2016-11-25T05:38:57.477Z,0
2016-11-25T05:39:57.564Z,0
2016-11-25T05:40:57.626Z,0
2016-11-25T05:41:57.679Z,0
2016-11-25T05:42:57.728Z,0
2016-11-25T05:43:57.778Z,0
2016-11-25T05:44:57.822Z,0
2016-11-25T05:45:57.924Z,0
2016-11-25T05:46:57.955Z,0
2016-11-25T05:47:58.024Z,0
2016-11-25T05:48:58.046Z,0
2016-11-25T05:49:58.139Z,0
2016-11-25T05:50:58.198Z,0
2016-11-25T05:51:58.216Z,0
2016-11-25T05:52:58.299Z,0
2016-11-25T05:53:58.347Z,0
2016-11-25T05:54:58.413Z,0
2016-11-25T05:55:58.461Z,0
2016-11-25T05:56:58.509Z,0
2016-11-25T05:57:58.612Z,0
2016-11-25T05:58:58.616Z,0
2016-11-25T05:59:58.703Z,0
2016-11-25T06:00:58.761Z,0
2016-11-25T06:01:58.793Z,0
2016-11-25T06:02:58.863Z,0
2016-11-25T06:03:58.923Z,0
2016-11-25T06:04:59.014Z,0
2016-11-25T06:05:59.042Z,0
2016-11-25T06:06:59.121Z,0
2016-11-25T06:07:59.133Z,0
2016-11-25T06:08:59.206Z,0
2016-11-25T06:09:59.268Z,0
2016-11-25T06:10:59.606Z,0
2016-11-25T06:11:59.379Z,0
2016-11-25T06:12:59.445Z,0
2016-11-25T06:13:59.504Z,0
2016-11-25T06:14:59.530Z,0
2016-11-25T06:15:59.595Z,0
2016-11-25T06:16:59.636Z,4
2016-11-25T06:17:59.715Z,4
2016-11-25T06:18:59.764Z,4
2016-11-25T06:19:59.834Z,4
2016-11-25T06:20:59.886Z,4
2016-11-25T06:21:59.942Z,4
2016-11-25T06:22:59.999Z,4
2016-11-25T06:24:00.053Z,8
2016-11-25T06:25:00.111Z,8
2016-11-25T06:26:00.160Z,8
2016-11-25T06:27:00.215Z,8
2016-11-25T06:28:00.264Z,12
2016-11-25T06:29:00.350Z,12
2016-11-25T06:30:00.393Z,12
2016-11-25T06:31:00.436Z,12
2016-11-25T06:32:00.504Z,16
2016-11-25T06:33:00.562Z,16
2016-11-25T06:34:00.610Z,16
2016-11-25T06:35:00.671Z,16
2016-11-25T06:36:00.725Z,20
2016-11-25T06:37:00.795Z,20
2016-11-25T06:38:00.849Z,24
2016-11-25T06:39:00.897Z,28
2016-11-25T06:40:00.955Z,32
2016-11-25T06:41:01.025Z,36
2016-11-25T06:42:01.070Z,40
2016-11-25T06:43:01.122Z,40
2016-11-25T06:44:01.196Z,48
2016-11-25T06:45:01.253Z,52
2016-11-25T06:46:01.295Z,56
2016-11-25T06:47:01.338Z,60
2016-11-25T06:48:01.408Z,64
2016-11-25T06:49:01.451Z,68
2016-11-25T06:50:01.502Z,72
2016-11-25T06:51:01.589Z,76
2016-11-25T06:52:01.631Z,80
2016-11-25T06:53:01.686Z,84
2016-11-25T06:54:01.767Z,88
2016-11-25T06:55:01.794Z,96
2016-11-25T06:56:01.861Z,96
2016-11-25T06:57:01.902Z,100
2016-11-25T06:58:01.989Z,108
2016-11-25T06:59:02.014Z,112
2016-11-25T07:00:02.067Z,116
2016-11-25T07:01:02.137Z,120
2016-11-25T07:02:02.193Z,124
2016-11-25T07:03:02.567Z,136
2016-11-25T07:04:02.299Z,144
2016-11-25T07:05:02.368Z,148
2016-11-25T07:06:02.425Z,156
2016-11-25T07:07:02.484Z,168
2016-11-25T07:08:02.569Z,176
2016-11-25T07:09:02.593Z,180
2016-11-25T07:10:02.668Z,184
2016-11-25T07:11:02.725Z,196
2016-11-25T07:12:02.787Z,204
2016-11-25T07:13:02.819Z,216
2016-11-25T07:14:02.875Z,224
2016-11-25T07:15:02.932Z,232
2016-11-25T07:16:03.006Z,244
2016-11-25T07:17:03.064Z,252
2016-11-25T07:18:03.125Z,260
2016-11-25T07:19:03.182Z,268
2016-11-25T07:20:03.211Z,276
2016-11-25T07:21:03.285Z,292
2016-11-25T07:22:03.336Z,308
2016-11-25T07:23:03.383Z,332
2016-11-25T07:24:03.456Z,352
2016-11-25T07:25:03.496Z,376
2016-11-25T07:26:03.565Z,400
2016-11-25T07:27:03.613Z,416
2016-11-25T07:28:03.669Z,428
2016-11-25T07:29:03.733Z,436
2016-11-25T07:30:03.807Z,432
2016-11-25T07:31:03.849Z,428
2016-11-25T07:32:03.914Z,420
2016-11-25T07:33:03.968Z,416
2016-11-25T07:34:04.019Z,420
2016-11-25T07:35:04.060Z,436
2016-11-25T07:36:04.130Z,460
2016-11-25T07:37:04.168Z,480
2016-11-25T07:38:04.259Z,488
2016-11-25T07:39:04.282Z,492
2016-11-25T07:40:04.359Z,492
2016-11-25T07:41:04.428Z,516
2016-11-25T07:42:04.570Z,564
2016-11-25T07:43:04.506Z,596
2016-11-25T07:44:04.591Z,612
2016-11-25T07:45:04.634Z,616
2016-11-25T07:46:04.682Z,604
2016-11-25T07:47:04.729Z,600
2016-11-25T07:48:04.806Z,600
2016-11-25T07:49:04.870Z,608
2016-11-25T07:50:04.932Z,612
2016-11-25T07:51:04.967Z,612
2016-11-25T07:52:05.028Z,624
2016-11-25T07:53:05.096Z,648
2016-11-25T07:54:05.158Z,692
2016-11-25T07:55:05.205Z,728
2016-11-25T07:56:05.256Z,764
2016-11-25T07:57:05.310Z,788
2016-11-25T07:58:05.382Z,808
2016-11-25T07:59:05.410Z,832
2016-11-25T08:00:05.491Z,848
2016-11-25T08:01:05.539Z,852
2016-11-25T08:02:05.586Z,856
2016-11-25T08:03:05.650Z,912
2016-11-25T08:04:05.705Z,972
2016-11-25T08:05:05.771Z,1040
2016-11-25T08:06:05.815Z,1124
2016-11-25T08:07:05.868Z,1160
2016-11-25T08:08:06.096Z,1164
2016-11-25T08:09:05.994Z,1164
2016-11-25T08:10:06.030Z,1164
2016-11-25T08:11:06.093Z,1132
2016-11-25T08:12:06.137Z,1104
2016-11-25T08:13:06.220Z,1112
2016-11-25T08:14:06.272Z,1136
2016-11-25T08:15:06.324Z,1136
2016-11-25T08:16:06.370Z,1112
2016-11-25T08:17:06.439Z,1088
2016-11-25T08:18:06.501Z,940
2016-11-25T08:19:06.549Z,1000
2016-11-25T08:20:06.628Z,1040
2016-11-25T08:21:06.667Z,1024
2016-11-25T08:22:06.710Z,1020
2016-11-25T08:23:06.766Z,1012
2016-11-25T08:24:06.836Z,992
2016-11-25T08:25:06.882Z,984
2016-11-25T08:26:06.960Z,976
2016-11-25T08:27:06.998Z,964
2016-11-25T08:28:07.062Z,968
2016-11-25T08:29:07.100Z,972
2016-11-25T08:30:07.185Z,976
2016-11-25T08:31:07.247Z,980
2016-11-25T08:32:07.291Z,968
2016-11-25T08:33:07.366Z,964
2016-11-25T08:34:07.412Z,976
2016-11-25T08:35:07.469Z,992
2016-11-25T08:36:07.499Z,1036
2016-11-25T08:37:07.572Z,1100
2016-11-25T08:38:07.647Z,1140
2016-11-25T08:39:07.669Z,1204
2016-11-25T08:40:07.748Z,1352
2016-11-25T08:41:07.792Z,1512
2016-11-25T08:42:07.842Z,1648
2016-11-25T08:43:07.909Z,1740
2016-11-25T08:44:07.967Z,1752
2016-11-25T08:45:08.037Z,1712
2016-11-25T08:46:08.080Z,1548
2016-11-25T08:47:08.145Z,1332
2016-11-25T08:48:08.197Z,1236
2016-11-25T08:49:08.264Z,1252
2016-11-25T08:50:08.311Z,1368
2016-11-25T08:51:08.388Z,1476
2016-11-25T08:52:08.437Z,1592
2016-11-25T08:53:08.511Z,1636
2016-11-25T08:54:08.539Z,1592
2016-11-25T08:55:08.919Z,1560
2016-11-25T08:56:08.655Z,1420
2016-11-25T08:57:08.720Z,1396
2016-11-25T08:58:08.766Z,1376
2016-11-25T08:59:08.832Z,1452
2016-11-25T09:00:08.867Z,1460
2016-11-25T09:01:08.942Z,1404
2016-11-25T09:02:09.003Z,1288
2016-11-25T09:03:09.059Z,1208
2016-11-25T09:04:09.132Z,1180
2016-11-25T09:05:09.190Z,1184
2016-11-25T09:06:09.225Z,1232
2016-11-25T09:07:09.291Z,1284
2016-11-25T09:08:09.338Z,1352
2016-11-25T09:09:09.409Z,1304
2016-11-25T09:10:09.451Z,1288
2016-11-25T09:11:09.517Z,1316
2016-11-25T09:12:09.568Z,1436
2016-11-25T09:13:09.654Z,1372
2016-11-25T09:14:10.008Z,1336
2016-11-25T09:15:09.760Z,1288
2016-11-25T09:16:09.796Z,1328
2016-11-25T09:17:09.852Z,1368
2016-11-25T09:18:09.927Z,1416
2016-11-25T09:19:09.979Z,1456
2016-11-25T09:20:10.023Z,1436
2016-11-25T09:21:10.095Z,1408
2016-11-25T09:22:10.128Z,1384
2016-11-25T09:23:10.205Z,1352
2016-11-25T09:24:10.246Z,1316
2016-11-25T09:25:10.507Z,1280
2016-11-25T09:26:10.377Z,1288
2016-11-25T09:27:10.434Z,1336
2016-11-25T09:28:10.492Z,1236
2016-11-25T09:29:10.546Z,1336
2016-11-25T09:30:10.579Z,1268
2016-11-25T09:31:10.655Z,1156
2016-11-25T09:32:10.697Z,1096
2016-11-25T09:33:10.782Z,1132
2016-11-25T09:34:10.817Z,1172
2016-11-25T09:35:10.904Z,1180
2016-11-25T09:36:10.931Z,1256
2016-11-25T09:37:10.997Z,1416
2016-11-25T09:38:11.073Z,1452
2016-11-25T09:39:11.117Z,1476
2016-11-25T09:40:11.183Z,1596
2016-11-25T09:41:11.232Z,1672
2016-11-25T09:42:11.597Z,1472
2016-11-25T09:43:11.337Z,1356
2016-11-25T09:44:11.399Z,1324
2016-11-25T09:45:11.473Z,1324
2016-11-25T09:46:11.519Z,1320
2016-11-25T09:47:11.583Z,1368
2016-11-25T09:48:11.633Z,1708
2016-11-25T09:49:11.671Z,1540
2016-11-25T09:50:11.742Z,1720
2016-11-25T09:51:11.798Z,1548
2016-11-25T09:52:11.883Z,1504
2016-11-25T09:53:11.915Z,1512
2016-11-25T09:54:11.980Z,1512
2016-11-25T09:55:12.026Z,1560
2016-11-25T09:56:12.075Z,1752
2016-11-25T09:57:12.154Z,2200
2016-11-25T09:58:12.189Z,1820
2016-11-25T09:59:12.251Z,1724
2016-11-25T10:00:12.321Z,1636
2016-11-25T10:01:12.383Z,1636
2016-11-25T10:02:12.463Z,1708
2016-11-25T10:03:12.511Z,1724
2016-11-25T10:04:12.540Z,1708
2016-11-25T10:05:12.589Z,1616
2016-11-25T10:06:12.680Z,1432
2016-11-25T10:07:12.720Z,1228
2016-11-25T10:08:12.763Z,1028
2016-11-25T10:09:12.848Z,960
2016-11-25T10:10:12.908Z,1004
2016-11-25T10:11:12.967Z,1052
2016-11-25T10:12:13.030Z,1056
2016-11-25T10:13:13.069Z,1016
2016-11-25T10:14:13.133Z,1000
2016-11-25T10:15:13.199Z,1040
2016-11-25T10:16:13.384Z,1096
2016-11-25T10:17:13.303Z,1192
2016-11-25T10:18:13.357Z,1144
2016-11-25T10:19:13.428Z,1048
2016-11-25T10:20:13.478Z,1008
2016-11-25T10:21:13.853Z,988
2016-11-25T10:22:13.586Z,1004
2016-11-25T10:23:13.644Z,1080
2016-11-25T10:24:13.712Z,1124
2016-11-25T10:25:13.763Z,1112
2016-11-25T10:26:13.823Z,1072
2016-11-25T10:27:13.861Z,992
2016-11-25T10:28:13.931Z,940
2016-11-25T10:29:13.979Z,928
2016-11-25T10:30:14.032Z,900
2016-11-25T10:31:14.107Z,852
2016-11-25T10:32:14.163Z,808
2016-11-25T10:33:14.229Z,772
2016-11-25T10:34:14.271Z,756
2016-11-25T10:35:14.338Z,720
2016-11-25T10:36:14.412Z,688
2016-11-25T10:37:14.440Z,664
2016-11-25T10:38:14.515Z,644
2016-11-25T10:39:14.580Z,632
2016-11-25T10:40:14.619Z,612
2016-11-25T10:41:14.703Z,600
2016-11-25T10:42:14.747Z,588
2016-11-25T10:43:14.826Z,588
2016-11-25T10:44:14.869Z,568
2016-11-25T10:45:14.938Z,548
2016-11-25T10:46:14.975Z,516
2016-11-25T10:47:15.020Z,492
2016-11-25T10:48:15.071Z,472
2016-11-25T10:49:15.155Z,460
2016-11-25T10:50:15.199Z,456
2016-11-25T10:51:15.249Z,452
2016-11-25T10:52:15.302Z,448
2016-11-25T10:53:15.387Z,440
2016-11-25T10:54:15.429Z,440
2016-11-25T10:55:15.510Z,432
2016-11-25T10:56:15.550Z,432
2016-11-25T10:57:15.622Z,428
2016-11-25T10:58:15.663Z,436
2016-11-25T10:59:15.713Z,444
2016-11-25T11:00:15.795Z,460
2016-11-25T11:01:15.823Z,476
2016-11-25T11:02:15.888Z,488
2016-11-25T11:03:15.946Z,504
2016-11-25T11:04:16.011Z,536
2016-11-25T11:05:16.067Z,580
2016-11-25T11:06:16.118Z,640
2016-11-25T11:07:16.180Z,708
2016-11-25T11:08:16.232Z,740
2016-11-25T11:09:16.314Z,744
2016-11-25T11:10:16.352Z,756
2016-11-25T11:11:16.389Z,720
2016-11-25T11:12:16.460Z,688
2016-11-25T11:13:16.503Z,688
2016-11-25T11:14:16.581Z,732
2016-11-25T11:15:16.641Z,776
2016-11-25T11:16:16.711Z,788
2016-11-25T11:17:16.755Z,756
2016-11-25T11:18:16.790Z,724
2016-11-25T11:19:16.862Z,708
2016-11-25T11:20:16.945Z,692
2016-11-25T11:21:16.962Z,696
2016-11-25T11:22:17.032Z,700
2016-11-25T11:23:17.103Z,700
2016-11-25T11:24:17.143Z,700
2016-11-25T11:25:17.207Z,708
2016-11-25T11:26:17.265Z,724
2016-11-25T11:27:17.304Z,788
2016-11-25T11:28:17.394Z,864
2016-11-25T11:29:17.445Z,920
2016-11-25T11:30:17.486Z,940
2016-11-25T11:31:17.548Z,944
2016-11-25T11:32:17.609Z,976
2016-11-25T11:33:17.683Z,1000
2016-11-25T11:34:17.759Z,1028
2016-11-25T11:35:17.796Z,1052
2016-11-25T11:36:17.830Z,1080
2016-11-25T11:37:17.886Z,1112
2016-11-25T11:38:17.948Z,1124
2016-11-25T11:39:18.007Z,1172
2016-11-25T11:40:18.073Z,1240
2016-11-25T11:41:18.110Z,1308
2016-11-25T11:42:18.194Z,1344
2016-11-25T11:43:18.219Z,1472
2016-11-25T11:44:18.288Z,1724
2016-11-25T11:45:18.357Z,1924
2016-11-25T11:46:18.411Z,2004
2016-11-25T11:47:18.448Z,1940
2016-11-25T11:48:18.519Z,1740
2016-11-25T11:49:18.583Z,1564
2016-11-25T11:50:18.655Z,1464
2016-11-25T11:51:18.680Z,1444
2016-11-25T11:52:18.752Z,1424
2016-11-25T11:53:18.812Z,1404
2016-11-25T11:54:18.842Z,1432
2016-11-25T11:55:18.923Z,1496
2016-11-25T11:56:18.985Z,1684
2016-11-25T11:57:19.040Z,1940
2016-11-25T11:58:19.090Z,2152
2016-11-25T11:59:19.138Z,2412
2016-11-25T12:00:19.208Z,2732
2016-11-25T12:01:19.266Z,3004
2016-11-25T12:02:19.328Z,3172
2016-11-25T12:03:19.494Z,3460
2016-11-25T12:04:19.445Z,3332
2016-11-25T12:05:19.497Z,3444
2016-11-25T12:06:19.534Z,3444
2016-11-25T12:07:19.611Z,3552
2016-11-25T12:08:19.670Z,3592
2016-11-25T12:09:19.729Z,3284
2016-11-25T12:10:19.795Z,3248
2016-11-25T12:11:19.840Z,3356
2016-11-25T12:12:19.898Z,3364
2016-11-25T12:13:19.957Z,3324
2016-11-25T12:14:20.029Z,3724
2016-11-25T12:15:20.065Z,3540
2016-11-25T12:16:20.137Z,3484
2016-11-25T12:17:20.193Z,3492
2016-11-25T12:18:20.259Z,3576
2016-11-25T12:19:20.290Z,3680
2016-11-25T12:20:20.373Z,4048
2016-11-25T12:21:20.417Z,4336
2016-11-25T12:22:20.466Z,4364
2016-11-25T12:23:20.523Z,4200
2016-11-25T12:24:20.602Z,3764
2016-11-25T12:25:20.652Z,3356
2016-11-25T12:26:20.697Z,3000
2016-11-25T12:27:20.748Z,2796
2016-11-25T12:28:20.805Z,2836
2016-11-25T12:29:20.888Z,2792
2016-11-25T12:30:20.949Z,2656
2016-11-25T12:31:21.007Z,2508
2016-11-25T12:32:21.035Z,2432
2016-11-25T12:33:21.098Z,2352
2016-11-25T12:34:21.165Z,2520
2016-11-25T12:35:21.238Z,2728
2016-11-25T12:36:21.276Z,2600
2016-11-25T12:37:21.339Z,2488
2016-11-25T12:38:21.374Z,2576
2016-11-25T12:39:21.460Z,2348
2016-11-25T12:40:21.497Z,2168
2016-11-25T12:41:21.559Z,2112
2016-11-25T12:42:21.936Z,2172
2016-11-25T12:43:21.677Z,2172
2016-11-25T12:44:22.042Z,2196
2016-11-25T12:45:21.805Z,2288
2016-11-25T12:46:21.865Z,2392
2016-11-25T12:47:21.929Z,2512
2016-11-25T12:48:21.971Z,2596
2016-11-25T12:49:22.160Z,2656
2016-11-25T12:50:22.088Z,2712
2016-11-25T12:51:22.132Z,2752
2016-11-25T12:52:22.203Z,2772
2016-11-25T12:53:22.262Z,2676
2016-11-25T12:54:22.313Z,2516
2016-11-25T12:55:22.375Z,2344
2016-11-25T12:56:22.443Z,2216
2016-11-25T12:57:22.492Z,2064
2016-11-25T12:58:22.569Z,1924
2016-11-25T12:59:22.809Z,1772
2016-11-25T13:00:22.665Z,1584
2016-11-25T13:01:22.703Z,1408
2016-11-25T13:02:22.770Z,1288
2016-11-25T13:03:22.846Z,1148
2016-11-25T13:04:22.889Z,1028
2016-11-25T13:05:22.950Z,916
2016-11-25T13:06:22.994Z,820
2016-11-25T13:07:23.081Z,760
2016-11-25T13:08:23.104Z,728
2016-11-25T13:09:23.181Z,684
2016-11-25T13:10:23.229Z,652
2016-11-25T13:11:23.295Z,628
2016-11-25T13:12:23.356Z,600
2016-11-25T13:13:23.426Z,572
2016-11-25T13:14:23.479Z,552
2016-11-25T13:15:23.520Z,556
2016-11-25T13:16:23.597Z,572
2016-11-25T13:17:23.640Z,592
2016-11-25T13:18:23.704Z,584
2016-11-25T13:19:23.746Z,584
2016-11-25T13:20:23.804Z,596
2016-11-25T13:21:23.864Z,608
2016-11-25T13:22:23.921Z,600
2016-11-25T13:23:23.977Z,596
2016-11-25T13:24:24.041Z,596
2016-11-25T13:25:24.093Z,596
2016-11-25T13:26:24.138Z,584
2016-11-25T13:27:24.226Z,544
2016-11-25T13:28:24.283Z,500
2016-11-25T13:29:24.307Z,464
2016-11-25T13:30:24.382Z,440
2016-11-25T13:31:24.418Z,440
2016-11-25T13:32:24.477Z,448
2016-11-25T13:33:24.547Z,460
2016-11-25T13:34:24.604Z,468
2016-11-25T13:35:24.649Z,480
2016-11-25T13:36:24.722Z,476
2016-11-25T13:37:24.775Z,480
2016-11-25T13:38:24.816Z,488
2016-11-25T13:39:24.895Z,480
2016-11-25T13:40:24.955Z,464
2016-11-25T13:41:24.991Z,456
2016-11-25T13:42:25.047Z,452
2016-11-25T13:43:25.123Z,440
2016-11-25T13:44:25.162Z,444
2016-11-25T13:45:25.233Z,468
2016-11-25T13:46:25.297Z,472
2016-11-25T13:47:25.332Z,464
2016-11-25T13:48:25.412Z,456
2016-11-25T13:49:25.455Z,460
2016-11-25T13:50:25.528Z,460
2016-11-25T13:51:25.596Z,472
2016-11-25T13:52:25.642Z,488
2016-11-25T13:53:25.680Z,488
2016-11-25T13:54:25.734Z,484
2016-11-25T13:55:25.796Z,472
2016-11-25T13:56:25.854Z,464
2016-11-25T13:57:25.953Z,448
2016-11-25T13:58:25.982Z,428
2016-11-25T13:59:26.032Z,420
2016-11-25T14:00:26.089Z,436
2016-11-25T14:01:26.159Z,460
2016-11-25T14:02:26.201Z,472
2016-11-25T14:03:26.259Z,476
2016-11-25T14:04:26.340Z,476
2016-11-25T14:05:26.376Z,472
2016-11-25T14:06:26.434Z,472
2016-11-25T14:07:26.481Z,468